Time;durP1;ratioP1;P1;durP2;ratioP2;P2;SDS_P1;SDS_P2;PMS_P1;PMS_P2;Temp;Humidity;BMP_temperature;BMP_pressure;BME280_temperature;BME280_humidity;BME280_pressure;Samples;Min_cycle;Max_cycle;Signal;HPM_P1;HPM_P2
2021/06/29 00:01:30;;;;;;;4.45;0.91;;;;;;;16.99;87.04;99105.66;2026854;79;21417;-73
2021/06/29 00:04:33;;;;;;;3.63;1.02;;;;;;;17.04;87.47;99093.25;2027790;79;20305;-72
2021/06/29 00:07:37;;;;;;;3.86;1.19;;;;;;;17.05;87.43;99073.09;2027576;79;20251;-73
2021/06/29 00:10:40;;;;;;;4.49;1.04;;;;;;;17.05;87.51;99073.97;2027923;79;20174;-73
2021/06/29 00:13:44;;;;;;;2.17;1.11;;;;;;;17.00;87.38;99088.16;2029182;79;20198;-73
2021/06/29 00:16:47;;;;;;;1.75;1.01;;;;;;;16.93;87.78;99090.16;2027557;78;21831;-73
2021/06/29 00:19:49;;;;;;;2.59;1.17;;;;;;;16.93;88.15;99074.41;2027790;79;20182;-73
2021/06/29 00:22:52;;;;;;;4.80;1.10;;;;;;;16.95;88.31;99085.72;2027624;79;20155;-73
2021/06/29 00:25:55;;;;;;;2.74;0.96;;;;;;;16.94;88.34;99081.38;2028180;79;20192;-73
2021/06/29 00:28:58;;;;;;;1.75;1.00;;;;;;;16.98;88.60;99074.25;2027489;79;20213;-73
2021/06/29 00:32:00;;;;;;;2.58;1.02;;;;;;;16.99;88.39;99074.19;2027205;79;22733;-73
2021/06/29 00:35:05;;;;;;;2.88;0.94;;;;;;;16.96;88.34;99079.56;2028446;79;20227;-72
2021/06/29 00:38:08;;;;;;;3.35;1.10;;;;;;;16.95;88.21;99077.00;2027969;79;20183;-73
2021/06/29 00:41:11;;;;;;;1.56;0.93;;;;;;;16.96;88.29;99076.06;2027822;79;20190;-73
2021/06/29 00:44:22;;;;;;;2.20;1.24;;;;;;;16.97;88.09;99088.28;2028520;79;20198;-73
2021/06/29 00:47:24;;;;;;;2.21;1.14;;;;;;;16.92;88.20;99078.81;2027669;78;23430;-73
2021/06/29 00:50:27;;;;;;;1.73;1.11;;;;;;;16.94;88.31;99068.25;2027864;79;20192;-73
2021/06/29 00:53:30;;;;;;;7.36;0.94;;;;;;;16.92;88.20;99070.09;2027823;79;20212;-73
2021/06/29 00:56:32;;;;;;;2.46;1.13;;;;;;;16.94;88.50;99067.41;2027754;79;20638;-73
2021/06/29 00:59:37;;;;;;;1.81;1.30;;;;;;;16.88;88.36;99053.63;2027762;79;20197;-73
2021/06/29 01:02:39;;;;;;;4.14;1.20;;;;;;;16.84;88.16;99051.97;2026934;78;20660;-73
2021/06/29 01:05:42;;;;;;;2.72;0.80;;;;;;;16.77;88.18;99039.16;2028179;79;20276;-73
2021/06/29 01:08:45;;;;;;;2.66;1.00;;;;;;;16.69;88.30;99043.78;2028270;79;20214;-73
2021/06/29 01:11:48;;;;;;;3.99;1.06;;;;;;;16.65;88.63;99047.41;2027815;79;20182;-72
2021/06/29 01:14:50;;;;;;;3.25;1.00;;;;;;;16.61;89.06;99049.28;2027654;79;20203;-72
2021/06/29 01:17:56;;;;;;;1.25;0.88;;;;;;;16.57;89.32;99039.81;2027384;79;21540;-73
2021/06/29 01:20:59;;;;;;;3.88;0.90;;;;;;;16.59;89.50;99051.97;2027408;79;20276;-73
2021/06/29 01:24:03;;;;;;;4.07;1.10;;;;;;;16.64;89.41;99054.41;2027723;79;20699;-73
2021/06/29 01:33:19;;;;;;;1.88;1.04;;;;;;;16.62;88.90;99057.09;2027319;78;21138;-73
2021/06/29 01:36:23;;;;;;;5.10;1.06;;;;;;;16.59;88.95;99045.84;2027243;79;20716;-72
2021/06/29 01:39:25;;;;;;;2.69;0.86;;;;;;;16.58;88.97;99058.09;2027098;79;20220;-72
2021/06/29 01:42:28;;;;;;;2.10;0.74;;;;;;;16.56;88.96;99066.94;2028073;79;20670;-73
2021/06/29 01:45:32;;;;;;;1.44;1.10;;;;;;;16.50;89.07;99061.88;2027540;79;20182;-73
2021/06/29 01:48:35;;;;;;;4.91;1.02;;;;;;;16.52;89.26;99055.72;2027689;79;20637;-73
2021/06/29 01:51:38;;;;;;;1.33;0.90;;;;;;;16.54;89.31;99053.88;2027725;79;20166;-73
2021/06/29 01:54:42;;;;;;;3.21;1.01;;;;;;;16.54;89.44;99059.13;2027289;79;20240;-73
2021/06/29 01:57:47;;;;;;;1.36;0.90;;;;;;;16.48;89.38;99047.97;2028176;79;20166;-73
2021/06/29 02:00:50;;;;;;;1.39;1.27;;;;;;;16.48;89.58;99045.34;2027042;79;21684;-72
2021/06/29 02:03:52;;;;;;;1.73;1.10;;;;;;;16.47;89.73;99035.78;2029070;79;21005;-73
2021/06/29 02:06:55;;;;;;;1.64;0.86;;;;;;;16.46;89.79;99029.69;2028874;79;20182;-73
2021/06/29 02:09:57;;;;;;;2.08;0.90;;;;;;;16.47;89.73;99030.53;2028935;79;20268;-74
2021/06/29 02:13:01;;;;;;;1.80;0.90;;;;;;;16.44;89.58;99036.75;2029220;79;20250;-73
2021/06/29 02:16:05;;;;;;;1.63;0.88;;;;;;;16.43;89.55;99031.56;2027785;78;21592;-73
2021/06/29 02:19:09;;;;;;;3.15;0.90;;;;;;;16.43;89.79;99023.69;2029761;79;20220;-73
2021/06/29 02:22:12;;;;;;;1.17;0.90;;;;;;;16.44;89.65;99021.03;2029236;80;20338;-73
2021/06/29 02:25:14;;;;;;;1.92;0.86;;;;;;;16.43;89.61;99029.78;2028979;80;20170;-73
2021/06/29 02:28:18;;;;;;;4.14;1.20;;;;;;;16.42;89.48;99029.84;2028799;80;20194;-74
2021/06/29 02:31:20;;;;;;;3.46;0.95;;;;;;;16.41;89.57;99023.75;2028037;77;20179;-73
2021/06/29 02:34:23;;;;;;;3.04;1.00;;;;;;;16.40;89.42;99029.91;2029166;79;20296;-74
2021/06/29 02:37:26;;;;;;;2.79;1.14;;;;;;;16.37;89.23;99024.78;2029528;79;20227;-74
2021/06/29 02:40:29;;;;;;;1.59;0.80;;;;;;;16.33;89.31;99018.75;2028691;80;20174;-73
2021/06/29 02:43:31;;;;;;;3.61;0.90;;;;;;;16.36;89.35;99020.44;2029492;79;20204;-73
2021/06/29 02:46:35;;;;;;;1.63;1.01;;;;;;;16.36;89.29;99022.22;2027732;78;23917;-73
2021/06/29 02:49:38;;;;;;;2.45;1.34;;;;;;;16.35;89.27;99021.34;2028758;79;20189;-73
2021/06/29 02:52:40;;;;;;;1.16;0.80;;;;;;;16.31;89.17;99025.81;2029070;80;20192;-73
2021/06/29 02:55:43;;;;;;;3.38;0.90;;;;;;;16.27;89.04;99026.84;2028579;80;20184;-73
2021/06/29 02:58:46;;;;;;;2.40;1.05;;;;;;;16.21;89.02;99034.91;2029186;80;20209;-73
2021/06/29 03:01:48;;;;;;;5.43;1.10;;;;;;;16.13;89.03;99038.66;2027461;77;20190;-73
2021/06/29 03:04:52;;;;;;;4.93;0.94;;;;;;;16.07;89.48;99031.00;2032345;79;20219;-73
2021/06/29 03:07:56;;;;;;;2.78;0.81;;;;;;;16.07;89.68;99024.00;2027985;79;20199;-73
2021/06/29 03:10:59;;;;;;;3.17;1.00;;;;;;;16.07;89.70;99026.63;2029240;79;20206;-74
2021/06/29 03:14:02;;;;;;;2.69;0.74;;;;;;;16.07;89.73;99017.91;2028631;79;20174;-72
2021/06/29 03:17:06;;;;;;;3.13;0.94;;;;;;;16.05;89.76;99017.97;2027173;77;21333;-72
2021/06/29 03:20:12;;;;;;;1.66;1.02;;;;;;;16.02;89.67;99028.56;2028162;79;20193;-72
2021/06/29 03:23:14;;;;;;;3.67;1.27;;;;;;;15.95;89.58;99021.78;2028431;79;20637;-73
2021/06/29 03:26:17;;;;;;;3.56;1.15;;;;;;;15.88;89.82;99021.13;2027858;79;20178;-72
2021/06/29 03:29:19;;;;;;;0.91;0.91;;;;;;;15.87;90.26;99014.19;2029789;79;20166;-74
2021/06/29 03:32:22;;;;;;;1.26;1.16;;;;;;;15.87;90.41;99014.19;2027153;79;20186;-73
2021/06/29 03:35:25;;;;;;;1.94;1.00;;;;;;;15.87;90.55;99002.84;2027884;79;20208;-73
2021/06/29 03:38:28;;;;;;;2.21;0.86;;;;;;;15.88;90.56;98994.94;2028431;79;20174;-73
2021/06/29 03:41:31;;;;;;;1.80;1.20;;;;;;;15.88;90.32;99015.03;2028060;79;20562;-73
2021/06/29 03:44:34;;;;;;;2.84;1.08;;;;;;;15.83;90.17;99025.66;2028245;79;20192;-73
2021/06/29 03:47:36;;;;;;;4.46;1.17;;;;;;;15.79;90.28;99023.16;2027075;77;21147;-73
2021/06/29 03:50:39;;;;;;;2.45;1.00;;;;;;;15.78;90.42;99030.16;2028095;79;20742;-73
2021/06/29 03:53:42;;;;;;;0.98;0.98;;;;;;;15.79;90.74;99033.63;2024714;79;20222;-72
2021/06/29 03:56:44;;;;;;;1.15;0.85;;;;;;;15.83;90.92;99030.03;2028029;79;20174;-73
2021/06/29 03:59:47;;;;;;;2.71;1.10;;;;;;;15.87;90.76;99034.28;2028409;79;20284;-73
2021/06/29 04:02:50;;;;;;;1.55;1.09;;;;;;;15.89;90.46;99038.56;2027476;78;21663;-74
2021/06/29 04:05:52;;;;;;;2.11;1.01;;;;;;;15.87;90.25;99052.59;2028121;79;20194;-74
2021/06/29 04:08:56;;;;;;;4.20;1.01;;;;;;;15.85;90.19;99051.78;2027843;79;20154;-73
2021/06/29 04:11:59;;;;;;;2.81;0.96;;;;;;;15.79;90.33;99055.44;2028056;79;20186;-72
2021/06/29 04:15:03;;;;;;;3.65;0.95;;;;;;;15.75;90.50;99058.22;2028151;79;20170;-72
2021/06/29 04:18:09;;;;;;;1.52;0.80;;;;;;;15.76;90.95;99046.84;2027424;78;21270;-73
2021/06/29 04:21:13;;;;;;;2.41;0.90;;;;;;;15.80;91.06;99040.59;2027550;79;20239;-73
2021/06/29 04:24:16;;;;;;;3.78;1.09;;;;;;;15.85;91.04;99042.19;2028517;79;20174;-72
2021/06/29 04:27:22;;;;;;;2.33;1.00;;;;;;;15.87;90.83;99045.59;2027655;79;20167;-74
2021/06/29 04:30:24;;;;;;;2.84;1.00;;;;;;;15.89;90.69;99048.16;2027147;78;21497;-73
2021/06/29 04:33:27;;;;;;;4.44;1.10;;;;;;;15.89;90.50;99048.16;2028153;79;20174;-73
2021/06/29 04:36:30;;;;;;;1.60;0.90;;;;;;;15.87;90.59;99049.97;2028441;79;20333;-74
2021/06/29 04:39:32;;;;;;;2.22;1.00;;;;;;;15.88;90.87;99049.94;2027511;79;20175;-73
2021/06/29 04:42:35;;;;;;;4.10;0.91;;;;;;;15.96;91.08;99037.44;2028214;79;20595;-73
2021/06/29 04:45:38;;;;;;;3.94;1.20;;;;;;;16.05;91.40;99028.44;2027637;78;20224;-73
2021/06/29 04:48:41;;;;;;;3.74;1.01;;;;;;;16.16;91.19;99028.13;2028696;79;20225;-74
2021/06/29 04:51:44;;;;;;;2.89;0.93;;;;;;;16.22;90.95;99022.66;2029024;79;20173;-73
2021/06/29 04:54:46;;;;;;;3.10;1.00;;;;;;;16.27;90.84;99024.22;2030877;79;20179;-73
2021/06/29 04:57:49;;;;;;;3.88;1.05;;;;;;;16.37;90.80;99021.28;2028618;79;20205;-72
2021/06/29 05:00:52;;;;;;;1.81;1.09;;;;;;;16.43;90.49;99029.78;2027196;77;21225;-73
2021/06/29 05:03:54;;;;;;;2.92;1.19;;;;;;;16.48;90.54;99020.00;2028201;79;20198;-73
2021/06/29 05:06:57;;;;;;;1.73;1.21;;;;;;;16.56;90.13;99023.22;2027994;79;20198;-74
2021/06/29 05:09:59;;;;;;;1.30;1.24;;;;;;;16.63;89.77;99018.63;2027431;79;20250;-73
2021/06/29 05:13:02;;;;;;;4.31;1.20;;;;;;;16.68;89.29;99013.25;2028550;79;20198;-74
2021/06/29 05:16:06;;;;;;;2.40;1.14;;;;;;;16.75;88.88;99006.88;2026323;78;20744;-73
2021/06/29 05:19:08;;;;;;;2.94;1.20;;;;;;;16.83;88.51;98996.97;2026016;79;20253;-73
2021/06/29 05:22:11;;;;;;;4.78;1.48;;;;;;;16.89;88.05;99002.88;2027676;79;20184;-73
2021/06/29 05:25:14;;;;;;;1.69;1.38;;;;;;;17.01;87.61;99003.31;2027748;79;20255;-72
2021/06/29 05:28:22;;;;;;;2.01;1.08;;;;;;;17.16;87.08;99010.63;2027266;79;21152;-73
2021/06/29 05:31:25;;;;;;;4.61;1.04;;;;;;;17.36;86.56;98994.97;2026511;78;21652;-73
2021/06/29 05:34:27;;;;;;;6.40;1.10;;;;;;;17.50;86.04;98992.69;2030980;79;20178;-73
2021/06/29 05:37:30;;;;;;;1.59;1.10;;;;;;;17.68;85.34;98991.13;2027844;79;20230;-72
2021/06/29 05:40:33;;;;;;;5.57;1.17;;;;;;;17.90;84.74;98990.28;2027757;79;20728;-73
2021/06/29 05:43:36;;;;;;;1.91;1.06;;;;;;;18.33;83.31;98998.09;2027950;79;20171;-73
2021/06/29 05:46:40;;;;;;;2.55;1.02;;;;;;;18.92;81.34;99002.56;2027220;77;21693;-73
2021/06/29 05:49:43;;;;;;;6.18;0.94;;;;;;;19.49;78.96;98992.06;2028235;79;20789;-73
2021/06/29 05:52:46;;;;;;;3.58;1.04;;;;;;;19.91;76.92;98984.78;2028420;79;20186;-72
2021/06/29 05:55:49;;;;;;;4.91;1.15;;;;;;;20.18;75.15;98985.22;2027962;79;20166;-75
2021/06/29 05:58:51;;;;;;;2.36;0.86;;;;;;;20.54;72.90;98989.56;2027802;79;20286;-75
2021/06/29 06:01:55;;;;;;;1.21;0.80;;;;;;;20.42;72.39;98991.03;2026876;77;20701;-75
2021/06/29 06:04:57;;;;;;;1.81;0.80;;;;;;;20.44;72.37;98983.91;2126785;69;20262;-74
2021/06/29 06:08:00;;;;;;;2.13;1.00;;;;;;;20.97;70.91;98988.16;2027736;79;20292;-75
2021/06/29 06:11:03;;;;;;;2.64;0.75;;;;;;;21.43;69.69;98983.09;2028584;79;20216;-75
2021/06/29 06:14:05;;;;;;;3.10;0.80;;;;;;;21.98;67.90;98979.97;2025068;79;20193;-73
2021/06/29 06:17:08;;;;;;;4.21;0.80;;;;;;;22.37;65.01;98979.47;2018615;77;20820;-74
2021/06/29 06:20:11;;;;;;;3.39;0.94;;;;;;;22.74;64.00;98979.91;2016955;80;20225;-75
2021/06/29 06:23:14;;;;;;;1.88;0.80;;;;;;;22.92;62.27;98977.03;2017304;80;20187;-75
2021/06/29 06:26:17;;;;;;;1.94;0.80;;;;;;;23.29;61.02;98973.88;2017925;80;20159;-74
2021/06/29 06:29:19;;;;;;;5.72;1.16;;;;;;;23.55;60.72;98965.13;2017634;80;20241;-74
2021/06/29 06:32:22;;;;;;;2.44;1.25;;;;;;;23.81;59.14;98966.13;2020490;77;21988;-73
2021/06/29 06:35:25;;;;;;;2.21;1.29;;;;;;;24.04;58.08;98965.44;2022545;80;20197;-73
2021/06/29 06:38:27;;;;;;;4.35;1.27;;;;;;;24.32;56.77;98967.16;2022146;80;20197;-74
2021/06/29 06:41:30;;;;;;;2.75;0.80;;;;;;;24.45;56.28;98971.63;2022214;80;20610;-74
2021/06/29 06:44:32;;;;;;;1.20;0.56;;;;;;;24.60;55.74;98971.44;2023656;80;20182;-76
2021/06/29 06:47:35;;;;;;;1.27;0.56;;;;;;;24.58;53.87;98973.31;2017840;77;20725;-75
2021/06/29 06:50:38;;;;;;;1.77;0.50;;;;;;;24.54;53.16;98960.38;2017741;80;20657;-75
2021/06/29 06:53:41;;;;;;;2.16;0.50;;;;;;;24.68;53.29;98960.28;2017614;80;20194;-76
2021/06/29 06:56:44;;;;;;;3.01;0.50;;;;;;;24.77;53.26;98950.81;2019137;80;20195;-75
2021/06/29 06:59:46;;;;;;;2.83;0.50;;;;;;;24.85;51.74;98953.81;2017714;80;21064;-73
2021/06/29 07:02:50;;;;;;;0.93;0.50;;;;;;;24.87;53.06;98963.38;2022885;80;20400;-77
2021/06/29 07:05:53;;;;;;;1.08;0.30;;;;;;;24.95;50.82;98950.38;2023683;80;20203;-75
2021/06/29 07:08:55;;;;;;;3.05;0.50;;;;;;;25.24;51.48;98953.66;2023485;80;20231;-76
2021/06/29 07:12:05;;;;;;;1.38;0.40;;;;;;;25.56;51.30;98955.81;2022571;80;20175;-76
2021/06/29 07:15:08;;;;;;;3.61;0.50;;;;;;;25.79;49.52;98946.19;2021568;80;20175;-75
2021/06/29 07:18:15;;;;;;;2.96;0.40;;;;;;;25.95;48.71;98945.91;2017534;80;21878;-76
2021/06/29 07:21:17;;;;;;;0.80;0.40;;;;;;;25.92;47.78;98941.66;2017954;80;20292;-76
2021/06/29 07:24:20;;;;;;;1.65;0.40;;;;;;;25.88;46.91;98946.34;2018322;80;20698;-76
2021/06/29 07:27:22;;;;;;;2.10;0.40;;;;;;;25.74;46.85;98945.69;2018151;80;20871;-73
2021/06/29 07:30:25;;;;;;;2.83;0.43;;;;;;;25.63;48.14;98934.94;2018982;77;25258;-76
2021/06/29 07:33:28;;;;;;;0.99;0.43;;;;;;;25.65;49.63;98925.88;2023957;80;20178;-74
2021/06/29 07:36:30;;;;;;;1.52;0.60;;;;;;;25.73;49.37;98936.00;2023746;80;20167;-77
2021/06/29 07:39:33;;;;;;;20.36;1.30;;;;;;;25.71;49.25;98917.50;2023087;80;20217;-75
2021/06/29 07:42:36;;;;;;;75.91;1.99;;;;;;;25.80;49.61;98922.13;2022924;80;20208;-73
2021/06/29 07:45:38;;;;;;;2.33;0.40;;;;;;;25.70;48.97;98921.13;2020415;77;21747;-76
2021/06/29 07:48:41;;;;;;;1.81;0.32;;;;;;;25.74;49.01;98924.41;2016990;80;20754;-75
2021/06/29 07:51:44;;;;;;;0.68;0.38;;;;;;;25.81;48.14;98918.50;2017499;80;20683;-76
2021/06/29 07:54:46;;;;;;;1.09;0.40;;;;;;;25.92;47.78;98931.00;2018165;80;20179;-77
2021/06/29 07:57:49;;;;;;;3.55;0.50;;;;;;;25.80;47.13;98918.63;2017515;80;20721;-76
2021/06/29 08:00:51;;;;;;;2.13;0.40;;;;;;;25.68;47.16;98923.06;2017427;77;20232;-76
2021/06/29 08:03:54;;;;;;;0.88;0.30;;;;;;;25.34;47.48;98905.19;2022785;80;20187;-76
2021/06/29 08:06:57;;;;;;;1.19;0.50;;;;;;;25.32;46.99;98899.13;2021999;80;20195;-77
2021/06/29 08:10:00;;;;;;;0.96;0.47;;;;;;;25.19;46.75;98899.16;2022465;80;20196;-77
2021/06/29 08:13:04;;;;;;;1.85;0.40;;;;;;;25.25;47.84;98901.38;2023255;80;21034;-77
2021/06/29 08:16:10;;;;;;;2.05;0.60;;;;;;;25.47;48.37;98898.84;2022649;80;20201;-77
2021/06/29 08:19:13;;;;;;;1.50;0.46;;;;;;;25.62;47.95;98902.19;2024060;80;20163;-77
2021/06/29 08:22:16;;;;;;;1.08;0.46;;;;;;;25.57;46.79;98902.53;2022237;80;20203;-77
2021/06/29 08:25:20;;;;;;;1.09;0.50;;;;;;;25.47;47.84;98904.16;2021902;80;20171;-77
2021/06/29 08:28:23;;;;;;;2.01;0.41;;;;;;;25.36;48.28;98912.09;2022440;80;20179;-77
2021/06/29 08:31:26;;;;;;;1.63;0.34;;;;;;;25.30;47.38;98909.84;2019819;77;21841;-77
2021/06/29 08:34:28;;;;;;;1.51;0.44;;;;;;;25.27;47.79;98904.75;2018405;80;20332;-77
2021/06/29 08:37:31;;;;;;;2.30;0.50;;;;;;;25.26;47.58;98909.22;2017224;80;20593;-77
2021/06/29 08:40:38;;;;;;;0.50;0.40;;;;;;;25.21;47.62;98899.91;2016945;80;20187;-77
2021/06/29 08:43:41;;;;;;;1.15;0.47;;;;;;;25.20;48.11;98899.06;2017280;80;20171;-77
2021/06/29 08:46:45;;;;;;;1.30;0.40;;;;;;;25.32;48.78;98889.34;2019777;77;21903;-77
2021/06/29 08:49:47;;;;;;;0.82;0.50;;;;;;;25.30;47.64;98881.47;2023972;80;20228;-77
2021/06/29 08:52:50;;;;;;;0.47;0.44;;;;;;;25.47;48.05;98876.72;2023429;80;20183;-78
2021/06/29 08:55:53;;;;;;;3.97;0.61;;;;;;;25.41;46.68;98879.84;2022745;80;20167;-78
2021/06/29 08:58:57;;;;;;;2.35;0.40;;;;;;;25.21;47.92;98865.34;2023387;80;20248;-77
2021/06/29 09:02:01;;;;;;;4.24;0.30;;;;;;;25.03;47.54;98864.88;2019785;78;20200;-77
2021/06/29 09:05:18;;;;;;;1.51;0.50;;;;;;;24.76;48.13;98857.03;2013564;80;20248;-77
2021/06/29 09:08:23;;;;;;;1.41;0.50;;;;;;;24.80;48.88;98858.53;2017546;80;20504;-77
2021/06/29 09:11:35;;;;;;;2.67;0.40;;;;;;;24.89;49.55;98860.50;2018349;80;20249;-77
2021/06/29 09:14:39;;;;;;;2.89;0.50;;;;;;;24.82;49.35;98853.94;2014464;80;20689;-77
2021/06/29 09:17:41;;;;;;;2.19;0.49;;;;;;;24.75;50.19;98859.78;2021749;78;22155;-78
2021/06/29 09:20:53;;;;;;;1.04;0.47;;;;;;;24.68;52.12;98875.31;2023960;80;20185;-77
2021/06/29 09:23:56;;;;;;;1.25;0.47;;;;;;;24.58;51.89;98863.63;2025998;80;20212;-78
2021/06/29 09:26:58;;;;;;;0.85;0.40;;;;;;;24.43;52.60;98868.22;2024833;80;20179;-77
2021/06/29 09:30:01;;;;;;;1.71;0.40;;;;;;;24.15;52.65;98868.38;2021427;80;20186;-77
2021/06/29 09:33:09;;;;;;;2.14;0.52;;;;;;;23.91;53.04;98865.59;2016036;77;21856;-77
2021/06/29 09:36:15;;;;;;;0.73;0.50;;;;;;;23.79;53.35;98854.84;2016888;80;20209;-77
2021/06/29 09:39:19;;;;;;;2.28;0.63;;;;;;;23.62;54.16;98848.97;2015870;80;21211;-77
2021/06/29 09:42:26;;;;;;;0.61;0.35;;;;;;;23.45;54.70;98852.72;2018122;80;20610;-77
2021/06/29 09:45:37;;;;;;;1.80;0.40;;;;;;;23.38;55.44;98854.94;2016477;77;59857;-77
2021/06/29 09:48:47;;;;;;;2.97;0.59;;;;;;;23.30;56.16;98857.22;2014507;80;20203;-76
2021/06/29 09:52:10;;;;;;;2.74;0.36;;;;;;;23.21;56.58;98848.06;2015757;80;20281;-77
2021/06/29 09:55:12;;;;;;;0.52;0.30;;;;;;;23.19;56.25;98857.91;2015633;80;20220;-76
2021/06/29 09:58:16;;;;;;;0.40;0.40;;;;;;;23.02;56.52;98866.09;2015671;80;20210;-77
2021/06/29 10:01:22;;;;;;;0.88;0.40;;;;;;;22.87;56.39;98869.72;2017462;77;25396;-76
2021/06/29 10:04:24;;;;;;;0.44;0.40;;;;;;;22.80;56.78;98882.47;2021053;80;20941;-76
2021/06/29 10:07:27;;;;;;;0.44;0.31;;;;;;;22.76;57.89;98880.94;2020359;80;20248;-77
2021/06/29 10:10:29;;;;;;;2.81;0.40;;;;;;;22.78;57.31;98881.69;2021213;80;20231;-78
2021/06/29 10:13:35;;;;;;;1.27;0.35;;;;;;;22.82;58.26;98885.88;2022159;80;20202;-76
2021/06/29 10:16:44;;;;;;;0.40;0.40;;;;;;;22.83;58.84;98882.28;2018284;80;34132;-78
2021/06/29 10:20:10;;;;;;;1.44;0.54;;;;;;;22.78;58.53;98891.41;2018620;80;20680;-78
2021/06/29 10:23:11;;;;;;;0.91;0.40;;;;;;;22.67;57.74;98893.91;2018407;80;20188;-78
2021/06/29 10:26:15;;;;;;;0.51;0.30;;;;;;;22.55;57.56;98884.91;2017075;80;20231;-78
2021/06/29 10:29:20;;;;;;;2.41;0.46;;;;;;;22.42;58.47;98879.50;2019643;80;20246;-78
2021/06/29 10:32:25;;;;;;;1.05;0.40;;;;;;;22.34;58.96;98884.41;2021850;77;20674;-77
2021/06/29 10:35:28;;;;;;;0.85;0.40;;;;;;;22.19;60.13;98895.91;2023857;80;20226;-77
2021/06/29 10:38:30;;;;;;;0.94;0.30;;;;;;;22.03;60.79;98895.94;2023395;80;20743;-76
2021/06/29 10:41:36;;;;;;;1.24;0.50;;;;;;;21.85;61.68;98910.25;2022753;80;20199;-81
2021/06/29 10:44:41;;;;;;;1.55;0.50;;;;;;;21.70;62.37;98906.69;2024298;80;20175;-74
2021/06/29 10:47:43;;;;;;;0.69;0.43;;;;;;;21.61;63.65;98908.06;2016824;78;20529;-75
2021/06/29 10:50:47;;;;;;;0.50;0.40;;;;;;;21.47;63.94;98907.16;2017338;80;20746;-76
2021/06/29 10:53:50;;;;;;;0.74;0.50;;;;;;;21.35;64.39;98908.69;2017727;80;20598;-75
2021/06/29 10:56:55;;;;;;;1.83;0.50;;;;;;;21.16;65.43;98915.91;2017552;80;20186;-73
2021/06/29 10:59:58;;;;;;;3.17;0.40;;;;;;;20.96;67.64;98915.19;2016966;80;20226;-74
2021/06/29 11:03:07;;;;;;;1.26;0.43;;;;;;;20.74;69.59;98923.44;2013383;78;20358;-72
2021/06/29 11:06:10;;;;;;;1.09;0.50;;;;;;;20.51;71.61;98910.59;2016703;80;20213;-69
2021/06/29 11:09:21;;;;;;;1.46;0.61;;;;;;;20.34;71.54;98913.25;2017156;80;20285;-70
2021/06/29 11:12:27;;;;;;;1.63;0.77;;;;;;;20.15;71.96;98916.81;2016693;80;20197;-71
2021/06/29 11:15:50;;;;;;;0.63;0.45;;;;;;;19.98;73.49;98927.38;2016687;77;21499;-67
2021/06/29 11:18:53;;;;;;;6.07;1.21;;;;;;;19.82;73.80;98937.81;2022623;80;20273;-71
2021/06/29 11:21:56;;;;;;;5.84;1.56;;;;;;;19.67;75.78;98940.34;2021808;80;20244;-69
2021/06/29 11:25:04;;;;;;;8.61;0.73;;;;;;;19.52;77.06;98932.22;2022321;80;20722;-68
2021/06/29 11:28:30;;;;;;;4.36;1.05;;;;;;;19.37;78.01;98924.19;2021716;80;20179;-70
2021/06/29 11:31:33;;;;;;;4.57;1.01;;;;;;;19.29;79.10;98924.56;2019049;77;21250;-70
2021/06/29 11:34:36;;;;;;;4.34;0.85;;;;;;;19.28;80.39;98936.03;2018129;80;20202;-71
2021/06/29 11:38:03;;;;;;;2.31;0.63;;;;;;;19.26;81.05;98938.72;2017824;80;20200;-70
2021/06/29 11:41:24;;;;;;;4.05;0.77;;;;;;;19.19;82.15;98939.91;2018166;80;20164;-70
2021/06/29 11:44:26;;;;;;;2.97;0.61;;;;;;;19.20;82.44;98946.03;2018125;80;20291;-72
2021/06/29 11:47:36;;;;;;;4.66;0.70;;;;;;;19.21;82.66;98945.09;2021162;77;21133;-72
2021/06/29 11:50:42;;;;;;;7.45;0.79;;;;;;;19.25;82.83;98942.28;2023249;80;20639;-72
2021/06/29 11:53:45;;;;;;;2.66;0.64;;;;;;;19.30;82.59;98942.06;2022644;80;20194;-72
2021/06/29 11:56:47;;;;;;;2.54;0.80;;;;;;;19.32;81.50;98943.69;2019698;80;20276;-72
2021/06/29 11:59:53;;;;;;;2.64;0.71;;;;;;;19.40;81.82;98950.41;2022220;80;20163;-73
2021/06/29 12:03:05;;;;;;;1.55;0.80;;;;;;;19.47;82.48;98947.38;2016921;78;41248;-72
2021/06/29 12:06:19;;;;;;;5.00;0.81;;;;;;;19.54;82.80;98955.88;2017509;80;20276;-72
2021/06/29 12:09:31;;;;;;;2.61;0.64;;;;;;;19.61;82.96;98950.25;2018177;80;20168;-72
2021/06/29 12:12:34;;;;;;;1.76;0.43;;;;;;;19.56;82.52;98965.41;2017962;80;20941;-72
2021/06/29 12:15:40;;;;;;;2.11;0.31;;;;;;;19.38;79.69;98965.38;2017052;78;20367;-73
2021/06/29 12:18:46;;;;;;;3.65;0.30;;;;;;;19.07;77.24;98972.09;2022473;80;20267;-73
2021/06/29 12:21:49;;;;;;;0.44;0.20;;;;;;;18.84;76.90;98969.63;2022728;80;20199;-72
2021/06/29 12:24:51;;;;;;;1.90;0.20;;;;;;;18.62;77.09;98970.53;2022312;80;20171;-73
2021/06/29 12:28:04;;;;;;;0.90;0.20;;;;;;;18.48;77.30;98970.28;2022878;80;20196;-73
2021/06/29 12:31:09;;;;;;;2.31;0.26;;;;;;;18.33;77.88;98966.56;2020180;78;22111;-74
2021/06/29 12:34:12;;;;;;;1.15;0.30;;;;;;;18.35;78.83;98969.97;2017924;80;20494;-73
2021/06/29 12:37:14;;;;;;;0.89;0.30;;;;;;;18.37;79.26;98975.16;2017604;80;20184;-74
2021/06/29 12:40:17;;;;;;;1.09;0.34;;;;;;;18.30;79.36;98982.44;2017025;80;20691;-74
2021/06/29 12:43:30;;;;;;;0.22;0.20;;;;;;;18.28;80.18;98989.53;2017559;80;20221;-74
2021/06/29 12:46:33;;;;;;;1.19;0.30;;;;;;;18.32;80.79;98996.41;2019584;77;20301;-74
2021/06/29 12:49:37;;;;;;;3.03;0.20;;;;;;;18.32;80.36;98995.56;2022642;80;20167;-74
2021/06/29 12:52:40;;;;;;;1.79;0.30;;;;;;;18.34;80.63;98993.72;2022272;80;20191;-75
2021/06/29 12:55:42;;;;;;;1.89;0.30;;;;;;;18.34;80.71;99001.59;2022514;80;20297;-74
2021/06/29 12:58:47;;;;;;;1.20;0.30;;;;;;;18.37;81.49;99009.34;2022503;80;20353;-74
2021/06/29 13:01:55;;;;;;;1.77;0.30;;;;;;;18.40;81.53;99007.44;2018362;77;22030;-73
2021/06/29 13:05:00;;;;;;;0.28;0.20;;;;;;;18.43;80.80;99009.06;2017567;80;20684;-74
2021/06/29 13:08:31;;;;;;;0.51;0.28;;;;;;;18.42;80.61;98999.47;2017536;80;20311;-74
2021/06/29 13:11:34;;;;;;;0.61;0.30;;;;;;;18.44;81.23;98989.75;2015035;80;20329;-74
2021/06/29 13:14:38;;;;;;;1.30;0.31;;;;;;;18.46;81.29;98981.78;2017463;80;20168;-74
2021/06/29 13:17:48;;;;;;;0.29;0.29;;;;;;;18.38;79.23;98975.09;2020835;77;21469;-74
2021/06/29 13:20:52;;;;;;;0.20;0.20;;;;;;;18.29;77.25;98969.38;2022678;80;20171;-74
2021/06/29 13:24:06;;;;;;;0.56;0.30;;;;;;;18.28;78.43;98957.16;2022148;80;20263;-74
2021/06/29 13:27:11;;;;;;;0.28;0.25;;;;;;;18.19;77.01;98949.66;2022489;80;20196;-75
2021/06/29 13:30:14;;;;;;;0.30;0.20;;;;;;;18.19;78.24;98928.66;2021542;80;20159;-74
2021/06/29 13:33:17;;;;;;;0.52;0.26;;;;;;;18.15;78.24;98922.66;2017082;77;20322;-74
2021/06/29 13:36:28;;;;;;;0.55;0.30;;;;;;;18.20;78.21;98917.22;2017548;80;20180;-75
2021/06/29 13:39:31;;;;;;;1.00;0.30;;;;;;;18.18;78.57;98914.66;2017585;80;20578;-75
2021/06/29 13:43:03;;;;;;;1.61;0.30;;;;;;;18.20;78.50;98915.44;2016710;80;20172;-75
2021/06/29 13:46:15;;;;;;;1.90;0.30;;;;;;;18.31;80.23;98930.72;2018622;77;20658;-75
2021/06/29 13:49:23;;;;;;;3.60;0.40;;;;;;;18.35;80.25;98946.31;2022814;80;21001;-75
2021/06/29 13:52:26;;;;;;;1.02;0.40;;;;;;;18.36;79.68;98931.41;2026895;80;20618;-76
2021/06/29 13:55:32;;;;;;;0.71;0.31;;;;;;;18.39;80.38;98924.22;2021924;80;20257;-76
2021/06/29 13:58:36;;;;;;;0.35;0.30;;;;;;;18.52;80.85;98928.97;2022718;80;20179;-76
2021/06/29 14:01:39;;;;;;;1.94;0.30;;;;;;;18.51;79.43;98943.03;2016685;77;26671;-76
2021/06/29 14:04:53;;;;;;;1.25;0.35;;;;;;;18.56;79.69;98931.38;2018871;80;20244;-76
2021/06/29 14:08:12;;;;;;;0.89;0.30;;;;;;;18.55;79.38;98932.31;2022681;80;20257;-76
2021/06/29 14:11:20;;;;;;;1.05;0.20;;;;;;;18.49;79.16;98924.69;2023328;80;20167;-78
2021/06/29 14:14:24;;;;;;;1.21;0.34;;;;;;;18.52;78.86;98918.44;2022434;80;20738;-78
2021/06/29 14:17:31;;;;;;;0.74;0.40;;;;;;;18.54;78.61;98917.44;2026893;77;21879;-78
2021/06/29 14:20:34;;;;;;;1.25;0.30;;;;;;;18.51;79.00;98914.97;2028093;79;20182;-78
2021/06/29 14:23:37;;;;;;;0.43;0.30;;;;;;;18.54;79.69;98932.38;2027991;79;20186;-78
2021/06/29 14:26:40;;;;;;;0.44;0.22;;;;;;;18.47;79.98;98939.66;2027187;79;20195;-78
2021/06/29 14:29:43;;;;;;;1.13;0.50;;;;;;;18.42;79.87;98946.91;2028119;79;20182;-78
2021/06/29 14:32:45;;;;;;;1.10;0.30;;;;;;;18.39;80.26;98953.16;2021431;77;23031;-78
2021/06/29 14:35:48;;;;;;;0.57;0.30;;;;;;;18.35;80.75;98956.84;2023171;80;20211;-78